Time;durP1;ratioP1;P1;durP2;ratioP2;P2;SDS_P1;SDS_P2;PMS_P1;PMS_P2;Temp;Humidity;BMP_temperature;BMP_pressure;BME280_temperature;BME280_humidity;BME280_pressure;Samples;Min_cycle;Max_cycle;Signal;HPM_P1;HPM_P2
2022/02/16 00:00:42;;;;;;;12.75;10.93;;;5.40;99.90;;;;;;5091579;28;20580;-52
2022/02/16 00:03:07;;;;;;;13.05;10.52;;;5.50;99.90;;;;;;5091175;28;20032;-53
2022/02/16 00:05:36;;;;;;;13.52;9.68;;;5.50;99.90;;;;;;5091263;28;20432;-52
2022/02/16 00:08:02;;;;;;;10.52;9.43;;;5.40;99.90;;;;;;5091365;28;20024;-52
2022/02/16 00:10:28;;;;;;;11.45;8.93;;;5.50;99.90;;;;;;5072792;28;20031;-52
2022/02/16 00:12:54;;;;;;;10.32;8.80;;;5.50;99.90;;;;;;5091035;28;20046;-53
2022/02/16 00:15:19;;;;;;;10.02;8.75;;;5.50;99.90;;;;;;5072559;28;20032;-53
2022/02/16 00:17:46;;;;;;;9.88;8.90;;;5.50;99.90;;;;;;5091216;28;20527;-51
2022/02/16 00:20:13;;;;;;;10.63;8.75;;;5.50;99.90;;;;;;5090821;28;20541;-52
2022/02/16 00:22:39;;;;;;;9.70;7.93;;;5.40;99.90;;;;;;5090536;28;20085;-52
2022/02/16 00:25:05;;;;;;;11.27;7.90;;;5.50;99.90;;;;;;5090730;28;20028;-53
2022/02/16 00:27:31;;;;;;;9.50;8.18;;;5.50;99.90;;;;;;5090798;28;20063;-52
2022/02/16 00:29:56;;;;;;;12.32;8.15;;;5.50;99.90;;;;;;5090703;28;20059;-52
2022/02/16 00:32:22;;;;;;;10.38;7.45;;;5.40;99.90;;;;;;5090673;28;20506;-54
2022/02/16 00:34:47;;;;;;;9.57;7.30;;;5.40;99.90;;;;;;5091010;28;20473;-54
2022/02/16 00:37:13;;;;;;;9.93;7.38;;;5.40;99.90;;;;;;5090364;28;20110;-52
2022/02/16 00:39:38;;;;;;;8.48;7.00;;;5.40;99.90;;;;;;5091013;28;20032;-54
2022/02/16 00:42:04;;;;;;;9.65;6.88;;;5.40;99.90;;;;;;5090049;28;20028;-52
2022/02/16 00:44:30;;;;;;;9.18;7.20;;;5.40;99.90;;;;;;5090645;28;20223;-52
2022/02/16 00:46:55;;;;;;;8.05;6.82;;;5.40;99.90;;;;;;5090154;28;20047;-51
2022/02/16 00:49:21;;;;;;;7.07;6.28;;;5.40;99.90;;;;;;5090293;28;20032;-53
2022/02/16 00:51:47;;;;;;;7.38;6.43;;;5.40;99.90;;;;;;5090520;28;20020;-52
2022/02/16 00:54:12;;;;;;;6.40;5.80;;;5.40;99.90;;;;;;5090296;28;20028;-52
2022/02/16 00:56:40;;;;;;;8.52;5.78;;;5.40;99.90;;;;;;5090153;28;20475;-55
2022/02/16 00:59:05;;;;;;;6.28;5.18;;;5.40;99.90;;;;;;5090170;28;20060;-54
2022/02/16 01:01:31;;;;;;;6.30;4.95;;;5.40;99.90;;;;;;5072932;28;20526;-53
2022/02/16 01:03:56;;;;;;;6.70;4.90;;;5.40;99.90;;;;;;5090496;28;20047;-53
2022/02/16 01:06:22;;;;;;;5.72;4.38;;;5.40;99.90;;;;;;5055879;28;20055;-55
2022/02/16 01:08:48;;;;;;;5.43;4.22;;;5.40;99.90;;;;;;5090550;28;20043;-56
2022/02/16 01:11:14;;;;;;;4.43;4.03;;;5.40;99.90;;;;;;5089823;28;20054;-56
2022/02/16 01:13:39;;;;;;;5.55;3.70;;;5.30;99.90;;;;;;5090110;28;20160;-49
2022/02/16 01:16:05;;;;;;;4.07;3.55;;;5.30;99.90;;;;;;5089913;28;20115;-53
2022/02/16 01:18:31;;;;;;;5.60;4.00;;;5.30;99.90;;;;;;5086302;28;20399;-52
2022/02/16 01:20:56;;;;;;;4.68;3.80;;;5.20;99.90;;;;;;5090270;28;20036;-55
2022/02/16 01:23:22;;;;;;;6.18;3.97;;;5.20;99.90;;;;;;5071543;28;20040;-54
2022/02/16 01:25:48;;;;;;;6.43;3.55;;;5.20;99.90;;;;;;5089007;28;20024;-51
2022/02/16 01:28:13;;;;;;;5.00;3.70;;;5.20;99.90;;;;;;5090299;28;20032;-53
2022/02/16 01:30:39;;;;;;;5.03;3.45;;;5.30;99.90;;;;;;5089694;28;20039;-53
2022/02/16 01:33:04;;;;;;;4.80;3.53;;;5.30;99.90;;;;;;5089261;28;20060;-54
2022/02/16 01:35:30;;;;;;;6.90;4.32;;;5.30;99.90;;;;;;5089777;28;20068;-51
2022/02/16 01:37:56;;;;;;;4.32;3.38;;;5.30;99.90;;;;;;5090090;28;20024;-50
2022/02/16 01:40:21;;;;;;;5.70;4.45;;;5.30;99.90;;;;;;5089574;28;20032;-54
2022/02/16 01:42:47;;;;;;;6.05;4.03;;;5.30;99.90;;;;;;5089799;28;20499;-52
2022/02/16 01:45:13;;;;;;;5.78;4.38;;;5.30;99.90;;;;;;5089733;28;20114;-51
2022/02/16 01:47:39;;;;;;;4.60;4.10;;;5.30;99.90;;;;;;5089734;28;20028;-52
2022/02/16 01:50:08;;;;;;;8.40;4.72;;;5.40;99.90;;;;;;5089548;28;20457;-50
2022/02/16 01:52:34;;;;;;;6.45;4.97;;;5.40;99.90;;;;;;5089614;28;20067;-52
2022/02/16 01:55:02;;;;;;;7.18;5.40;;;5.30;99.90;;;;;;5089323;28;20403;-55
2022/02/16 01:57:27;;;;;;;5.72;4.85;;;5.40;99.90;;;;;;5071181;28;20035;-52
2022/02/16 01:59:54;;;;;;;7.38;5.40;;;5.40;99.90;;;;;;5086054;28;20028;-56
2022/02/16 02:02:19;;;;;;;7.07;6.00;;;5.40;99.90;;;;;;5086745;28;20436;-52
2022/02/16 02:04:45;;;;;;;7.53;5.90;;;5.40;99.90;;;;;;5088258;28;20028;-52
2022/02/16 02:07:11;;;;;;;7.63;5.72;;;5.40;99.90;;;;;;5089205;28;20040;-52
2022/02/16 02:09:37;;;;;;;9.85;6.68;;;5.40;99.90;;;;;;5089315;28;20488;-54
2022/02/16 02:12:03;;;;;;;7.38;6.25;;;5.40;99.90;;;;;;5088761;28;20043;-51
2022/02/16 02:14:28;;;;;;;10.73;7.20;;;5.40;99.90;;;;;;5089406;28;20085;-53
2022/02/16 02:16:54;;;;;;;11.38;6.68;;;5.50;99.90;;;;;;5071081;28;20458;-53
2022/02/16 02:19:20;;;;;;;11.30;7.20;;;5.50;99.90;;;;;;5069075;28;20128;-51
2022/02/16 02:21:48;;;;;;;8.57;6.53;;;5.50;99.90;;;;;;5068757;28;20452;-51
2022/02/16 02:24:14;;;;;;;8.43;6.13;;;5.60;99.90;;;;;;5068552;28;20442;-55
2022/02/16 02:26:40;;;;;;;10.75;7.22;;;5.50;99.90;;;;;;5068797;28;20024;-52
2022/02/16 02:29:05;;;;;;;9.23;6.22;;;5.50;99.90;;;;;;5068774;28;20040;-52
2022/02/16 02:31:37;;;;;;;9.90;6.50;;;5.60;99.90;;;;;;5077890;28;20404;-52
2022/02/16 02:34:04;;;;;;;8.98;6.50;;;5.60;99.90;;;;;;5084665;28;20032;-53
2022/02/16 02:36:30;;;;;;;10.75;5.97;;;5.60;99.90;;;;;;5089141;28;20526;-56
2022/02/16 02:38:56;;;;;;;9.30;6.97;;;5.60;99.90;;;;;;5088640;28;20032;-53
2022/02/16 02:41:22;;;;;;;7.80;5.90;;;5.70;99.90;;;;;;5089087;28;20020;-53
2022/02/16 02:43:48;;;;;;;10.45;6.70;;;5.60;99.90;;;;;;5088642;28;20693;-51
2022/02/16 02:46:15;;;;;;;16.27;7.55;;;5.70;99.90;;;;;;5070649;28;20066;-50
2022/02/16 02:48:42;;;;;;;10.40;6.60;;;5.60;99.90;;;;;;5088884;28;20028;-50
2022/02/16 02:51:08;;;;;;;8.52;6.32;;;5.60;99.90;;;;;;5088362;28;20036;-53
2022/02/16 02:53:34;;;;;;;10.20;7.07;;;5.60;99.90;;;;;;5088712;28;20495;-52
2022/02/16 02:56:01;;;;;;;9.70;7.53;;;5.60;99.90;;;;;;5088753;28;20027;-51
2022/02/16 02:58:26;;;;;;;10.98;8.00;;;5.60;99.90;;;;;;5088588;28;20215;-53
2022/02/16 03:00:52;;;;;;;12.30;8.85;;;5.60;99.90;;;;;;5088597;28;20029;-52
2022/02/16 03:03:18;;;;;;;11.52;9.00;;;5.60;99.90;;;;;;5088820;28;20017;-53
2022/02/16 03:05:44;;;;;;;10.30;7.75;;;5.70;99.90;;;;;;5088719;28;20031;-50
2022/02/16 03:08:09;;;;;;;17.77;10.00;;;5.70;99.90;;;;;;5088856;28;20044;-52
2022/02/16 03:10:35;;;;;;;12.20;8.63;;;5.70;99.90;;;;;;5091730;28;20067;-53
2022/02/16 03:13:00;;;;;;;15.75;9.95;;;5.70;99.90;;;;;;5092485;28;20054;-54
2022/02/16 03:15:26;;;;;;;16.60;10.27;;;5.70;99.90;;;;;;5092130;28;20127;-52
2022/02/16 03:17:52;;;;;;;19.17;10.38;;;5.70;99.90;;;;;;5092459;28;20111;-52
2022/02/16 03:20:17;;;;;;;17.08;10.05;;;5.70;99.90;;;;;;5091942;28;20502;-51
2022/02/16 03:22:43;;;;;;;14.65;10.77;;;5.70;99.90;;;;;;5092104;28;20024;-51
2022/02/16 03:25:11;;;;;;;17.52;10.40;;;5.70;99.90;;;;;;5092084;28;20035;-51
2022/02/16 03:27:37;;;;;;;14.93;11.25;;;5.70;99.90;;;;;;5092665;28;20303;-53
2022/02/16 03:32:31;;;;;;;16.15;10.75;;;5.80;99.90;;;;;;5129411;27;20047;-55
2022/02/16 03:34:56;;;;;;;18.30;12.40;;;5.70;99.90;;;;;;5132311;27;20065;-56
2022/02/16 03:37:22;;;;;;;12.93;11.10;;;5.70;99.90;;;;;;5132406;27;20114;-57
2022/02/16 03:39:48;;;;;;;17.27;11.38;;;5.80;99.90;;;;;;5132892;27;20026;-56
2022/02/16 03:42:14;;;;;;;17.65;12.20;;;5.80;99.90;;;;;;5132429;27;20098;-53
2022/02/16 03:44:41;;;;;;;17.60;12.60;;;5.70;99.90;;;;;;5132962;27;20102;-55
2022/02/16 03:47:06;;;;;;;16.92;12.30;;;5.80;99.90;;;;;;5132528;27;20023;-53
2022/02/16 03:49:32;;;;;;;17.42;12.00;;;5.70;99.90;;;;;;5133140;27;20099;-55
2022/02/16 03:51:58;;;;;;;16.48;12.07;;;5.80;99.90;;;;;;5113832;27;20421;-57
2022/02/16 03:54:23;;;;;;;16.35;12.02;;;5.80;99.90;;;;;;5132654;27;20027;-58
2022/02/16 03:56:49;;;;;;;19.52;12.90;;;5.80;99.90;;;;;;5132513;27;20023;-56
2022/02/16 03:59:14;;;;;;;17.25;12.05;;;5.80;99.90;;;;;;5132211;27;20529;-58
2022/02/16 04:01:40;;;;;;;17.05;12.68;;;5.90;99.90;;;;;;5132573;27;20027;-58
2022/02/16 04:04:06;;;;;;;17.00;12.88;;;5.80;99.90;;;;;;5132056;27;20301;-57
2022/02/16 04:06:31;;;;;;;17.48;12.73;;;5.90;99.90;;;;;;5132636;27;20019;-57
2022/02/16 04:08:57;;;;;;;16.00;12.60;;;5.90;99.90;;;;;;5132032;27;20027;-59
2022/02/16 04:11:27;;;;;;;17.23;12.27;;;5.90;99.90;;;;;;5132144;27;20023;-57
2022/02/16 04:13:54;;;;;;;18.92;13.63;;;5.90;99.90;;;;;;5131690;27;20016;-57
2022/02/16 04:16:20;;;;;;;17.23;13.25;;;5.90;99.90;;;;;;5131859;27;20031;-57
2022/02/16 04:18:46;;;;;;;17.38;13.60;;;5.90;99.90;;;;;;5131771;27;20110;-57
2022/02/16 04:21:12;;;;;;;16.10;12.95;;;5.90;99.90;;;;;;5130206;27;20148;-57
2022/02/16 04:23:37;;;;;;;17.73;12.90;;;6.00;99.90;;;;;;5131945;27;20023;-58
2022/02/16 04:26:03;;;;;;;18.80;12.93;;;6.00;99.90;;;;;;5132300;27;20102;-56
2022/02/16 04:28:29;;;;;;;16.95;13.30;;;6.00;99.90;;;;;;5132035;27;20015;-57
2022/02/16 04:30:54;;;;;;;16.63;12.43;;;6.00;99.90;;;;;;5131627;27;20023;-57
2022/02/16 04:33:20;;;;;;;15.98;12.90;;;6.10;99.90;;;;;;5131312;27;20440;-56
2022/02/16 04:35:46;;;;;;;17.25;13.13;;;6.10;99.90;;;;;;5130555;27;20498;-58
2022/02/16 04:38:12;;;;;;;16.17;12.80;;;6.00;99.90;;;;;;5131500;27;20035;-58
2022/02/16 04:40:38;;;;;;;17.25;12.13;;;6.00;99.90;;;;;;5131567;27;20031;-53
2022/02/16 04:43:05;;;;;;;16.33;13.02;;;6.00;99.90;;;;;;5131573;27;20031;-58
2022/02/16 04:45:32;;;;;;;18.08;13.45;;;6.10;99.90;;;;;;5131192;27;20486;-57
2022/02/16 04:47:59;;;;;;;20.00;14.40;;;6.10;99.90;;;;;;5131171;27;20121;-58
2022/02/16 04:50:25;;;;;;;17.85;13.63;;;6.00;99.90;;;;;;5131193;27;20065;-58
2022/02/16 04:52:54;;;;;;;19.73;13.98;;;6.00;99.90;;;;;;5131002;27;20019;-57
2022/02/16 04:55:21;;;;;;;18.08;13.27;;;6.00;99.90;;;;;;5131294;27;20030;-58
2022/02/16 04:57:47;;;;;;;17.55;13.52;;;6.00;99.90;;;;;;5131178;27;20109;-58
2022/02/16 05:00:13;;;;;;;18.60;13.23;;;6.00;99.90;;;;;;5130937;27;20110;-58
2022/02/16 05:02:38;;;;;;;17.98;12.93;;;6.10;99.90;;;;;;5131173;27;20095;-58
2022/02/16 05:05:06;;;;;;;18.30;13.52;;;6.10;99.90;;;;;;5131326;27;20054;-54
2022/02/16 05:07:31;;;;;;;14.60;12.07;;;6.10;99.90;;;;;;5131440;27;20140;-54
2022/02/16 05:09:57;;;;;;;14.85;11.23;;;6.10;99.90;;;;;;5130996;27;20483;-57
2022/02/16 05:12:23;;;;;;;16.70;11.77;;;6.10;99.90;;;;;;5112279;27;20424;-57
2022/02/16 05:14:48;;;;;;;17.88;11.50;;;6.10;99.90;;;;;;5112565;27;20033;-55
2022/02/16 05:17:14;;;;;;;13.65;10.80;;;6.10;99.90;;;;;;5130588;27;20023;-57
2022/02/16 05:19:40;;;;;;;15.23;10.93;;;6.10;99.90;;;;;;5131104;27;20027;-58
2022/02/16 05:22:05;;;;;;;13.43;9.05;;;6.10;99.90;;;;;;5130348;27;20115;-57
2022/02/16 05:24:31;;;;;;;12.60;9.27;;;6.10;99.90;;;;;;5130834;27;20030;-57
2022/02/16 05:26:57;;;;;;;12.05;9.30;;;6.10;99.90;;;;;;5130732;27;20475;-54
2022/02/16 05:29:22;;;;;;;11.88;9.15;;;6.10;99.90;;;;;;5112101;27;20228;-56
2022/02/16 05:31:48;;;;;;;10.00;8.75;;;6.10;99.90;;;;;;5130131;27;20031;-56
2022/02/16 05:34:16;;;;;;;11.93;9.27;;;6.20;99.90;;;;;;5129535;27;20031;-57
2022/02/16 05:36:42;;;;;;;15.70;9.95;;;6.20;99.90;;;;;;5129735;27;20113;-57
2022/02/16 05:39:08;;;;;;;14.30;10.15;;;6.20;99.90;;;;;;5130860;27;20027;-58
2022/02/16 05:41:34;;;;;;;14.93;8.88;;;6.20;99.90;;;;;;5110104;28;20035;-58
2022/02/16 05:43:59;;;;;;;12.93;10.00;;;6.20;99.90;;;;;;5109741;28;20020;-55
2022/02/16 05:46:25;;;;;;;15.50;10.35;;;6.20;99.90;;;;;;5109933;28;20441;-55
2022/02/16 05:48:50;;;;;;;13.27;10.20;;;6.20;99.90;;;;;;5091784;28;20063;-56
2022/02/16 05:51:16;;;;;;;15.02;9.93;;;6.20;99.90;;;;;;5110132;28;20039;-56
2022/02/16 05:53:42;;;;;;;12.25;9.07;;;6.20;99.90;;;;;;5109705;28;20024;-58
2022/02/16 05:56:08;;;;;;;11.20;9.27;;;6.20;99.90;;;;;;5109845;28;20168;-57
2022/02/16 05:58:34;;;;;;;12.05;9.45;;;6.20;99.90;;;;;;5109278;28;20031;-52
2022/02/16 06:01:00;;;;;;;12.68;9.82;;;6.20;99.90;;;;;;5129096;27;20463;-56
2022/02/16 06:03:25;;;;;;;10.77;8.52;;;6.20;99.90;;;;;;5130070;27;20054;-58
2022/02/16 06:05:52;;;;;;;12.52;9.27;;;6.20;99.90;;;;;;5130366;27;20073;-58
2022/02/16 06:08:18;;;;;;;11.70;9.07;;;6.20;99.90;;;;;;5130248;28;20507;-56
2022/02/16 06:10:43;;;;;;;12.05;9.13;;;6.20;99.90;;;;;;5130226;27;20059;-59
2022/02/16 06:13:09;;;;;;;12.07;9.35;;;6.30;99.90;;;;;;5129720;28;20054;-58
2022/02/16 06:15:35;;;;;;;10.77;8.32;;;6.30;99.90;;;;;;5130312;28;20023;-57
2022/02/16 06:18:00;;;;;;;13.00;9.68;;;6.30;99.90;;;;;;5130410;28;20027;-57
2022/02/16 06:20:26;;;;;;;13.93;9.75;;;6.30;99.90;;;;;;5130206;28;20386;-58
2022/02/16 06:22:53;;;;;;;10.68;8.57;;;6.20;99.90;;;;;;5129967;28;20035;-57
2022/02/16 06:25:21;;;;;;;11.23;9.10;;;6.30;99.90;;;;;;5130162;28;20102;-57
2022/02/16 06:27:46;;;;;;;10.48;7.82;;;6.30;99.90;;;;;;5130027;28;20100;-57
2022/02/16 06:30:12;;;;;;;13.55;8.32;;;6.30;99.90;;;;;;5130184;28;20538;-56
2022/02/16 06:32:38;;;;;;;10.38;7.97;;;6.30;99.90;;;;;;5129740;28;20474;-58
2022/02/16 06:35:04;;;;;;;9.35;7.38;;;6.30;99.90;;;;;;5111474;28;20027;-55
2022/02/16 06:37:30;;;;;;;11.45;7.53;;;6.30;99.90;;;;;;5129756;28;20056;-57
2022/02/16 06:39:55;;;;;;;9.68;7.50;;;6.30;99.90;;;;;;5123201;28;20027;-57
2022/02/16 06:42:21;;;;;;;10.20;8.00;;;6.30;99.90;;;;;;5109449;28;20028;-56
2022/02/16 06:44:46;;;;;;;8.23;6.03;;;6.30;99.90;;;;;;5110897;28;20020;-55
2022/02/16 06:47:12;;;;;;;9.77;6.82;;;6.30;99.90;;;;;;5113450;28;20028;-57
2022/02/16 06:49:38;;;;;;;8.40;6.20;;;6.30;99.90;;;;;;5113938;28;20027;-59
2022/02/16 06:52:04;;;;;;;8.95;7.47;;;6.40;99.90;;;;;;5113223;28;20027;-57
2022/02/16 06:54:31;;;;;;;10.02;7.25;;;6.30;99.90;;;;;;5113245;28;20089;-58
2022/02/16 06:56:58;;;;;;;7.40;6.18;;;6.40;99.90;;;;;;5113382;28;20019;-55
2022/02/16 06:59:23;;;;;;;8.80;6.05;;;6.30;99.90;;;;;;5111714;28;20028;-57
2022/02/16 07:01:49;;;;;;;9.32;7.10;;;6.30;99.90;;;;;;5112854;28;20125;-55
2022/02/16 07:04:15;;;;;;;9.15;6.65;;;6.30;99.90;;;;;;5113143;28;20036;-57
2022/02/16 07:06:40;;;;;;;10.35;6.82;;;6.40;99.90;;;;;;5112837;28;20036;-57
2022/02/16 07:09:06;;;;;;;7.18;6.07;;;6.40;99.90;;;;;;5112955;28;20038;-57
2022/02/16 07:11:31;;;;;;;7.55;6.07;;;6.40;99.90;;;;;;5122451;27;20031;-56
2022/02/16 07:13:57;;;;;;;6.30;5.47;;;6.40;99.90;;;;;;5132015;27;20071;-54
2022/02/16 07:16:23;;;;;;;10.82;5.95;;;6.40;99.90;;;;;;5133080;27;20122;-55
2022/02/16 07:18:48;;;;;;;6.07;5.45;;;6.40;99.90;;;;;;5133456;27;20023;-56
2022/02/16 07:21:14;;;;;;;6.85;5.50;;;6.40;99.90;;;;;;5132954;27;20391;-56
2022/02/16 07:23:40;;;;;;;6.97;5.82;;;6.40;99.90;;;;;;5132687;27;20023;-58
2022/02/16 07:26:07;;;;;;;7.10;5.35;;;6.40;99.90;;;;;;5132293;27;20031;-55
2022/02/16 07:28:32;;;;;;;10.55;6.25;;;6.50;99.90;;;;;;5132829;27;20019;-56
2022/02/16 07:30:58;;;;;;;9.98;6.28;;;6.50;99.90;;;;;;5133074;27;20042;-57
2022/02/16 07:33:24;;;;;;;6.85;5.85;;;6.40;99.90;;;;;;5133107;27;20478;-54
2022/02/16 07:35:51;;;;;;;6.80;5.85;;;6.50;99.90;;;;;;5133175;27;20035;-57
2022/02/16 07:38:16;;;;;;;7.22;6.25;;;6.50;99.90;;;;;;5133129;27;20031;-57
2022/02/16 07:40:42;;;;;;;6.32;5.38;;;6.40;99.90;;;;;;5132425;27;20425;-58
2022/02/16 07:43:08;;;;;;;10.52;6.28;;;6.50;99.90;;;;;;5132560;27;20504;-58
2022/02/16 07:45:34;;;;;;;6.55;5.70;;;6.50;99.90;;;;;;5131844;27;20027;-57
2022/02/16 07:48:00;;;;;;;6.32;5.72;;;6.50;99.90;;;;;;5122953;27;20503;-58
2022/02/16 07:50:26;;;;;;;6.93;5.88;;;6.50;99.90;;;;;;5129430;27;20087;-57
2022/02/16 07:52:52;;;;;;;6.63;5.57;;;6.60;99.90;;;;;;5132471;27;20498;-53
2022/02/16 07:55:19;;;;;;;7.05;6.35;;;6.60;99.90;;;;;;5131755;27;20027;-58
2022/02/16 07:57:45;;;;;;;7.93;6.63;;;6.60;99.90;;;;;;5131984;27;20406;-58
2022/02/16 08:00:11;;;;;;;7.65;6.45;;;6.60;99.90;;;;;;5128567;27;20019;-55
2022/02/16 08:02:38;;;;;;;7.63;6.10;;;6.60;99.90;;;;;;5131913;27;20049;-59
2022/02/16 08:05:04;;;;;;;11.27;5.68;;;6.70;99.90;;;;;;5132048;27;20035;-57
2022/02/16 08:07:29;;;;;;;7.53;6.00;;;6.70;99.90;;;;;;5132485;27;20031;-59
2022/02/16 08:09:55;;;;;;;6.70;6.00;;;6.80;99.90;;;;;;5112118;27;20080;-58
2022/02/16 08:12:21;;;;;;;6.50;5.40;;;6.80;99.90;;;;;;5131030;27;20091;-59
2022/02/16 08:14:46;;;;;;;6.55;5.32;;;6.80;99.90;;;;;;5131843;27;20151;-59
2022/02/16 08:17:12;;;;;;;7.28;6.00;;;6.80;99.90;;;;;;5131740;27;20038;-59
2022/02/16 08:19:37;;;;;;;5.93;5.32;;;6.80;99.90;;;;;;5131707;27;20027;-60
2022/02/16 08:22:04;;;;;;;8.10;5.75;;;6.90;99.90;;;;;;5131926;27;20118;-59
2022/02/16 08:24:30;;;;;;;7.10;5.68;;;6.90;99.90;;;;;;5132140;27;20046;-59
2022/02/16 08:26:56;;;;;;;6.82;6.03;;;6.90;99.90;;;;;;5132051;27;20498;-59
2022/02/16 08:29:24;;;;;;;6.25;5.63;;;7.00;99.90;;;;;;5131835;27;20114;-56
2022/02/16 08:31:50;;;;;;;7.15;5.68;;;7.00;99.90;;;;;;5131543;27;20031;-58
2022/02/16 08:34:15;;;;;;;6.68;5.97;;;7.00;99.90;;;;;;5131497;27;20038;-55
2022/02/16 08:36:41;;;;;;;13.05;5.70;;;7.00;99.90;;;;;;5131483;27;20494;-59
2022/02/16 08:39:07;;;;;;;6.80;5.47;;;7.10;99.90;;;;;;5131535;27;20061;-58
2022/02/16 08:41:32;;;;;;;7.45;5.55;;;7.00;99.90;;;;;;5131540;27;20110;-59
2022/02/16 08:43:58;;;;;;;5.90;5.30;;;7.10;99.90;;;;;;5131448;27;20429;-59
2022/02/16 08:46:23;;;;;;;6.18;5.32;;;7.10;99.90;;;;;;5131241;27;20148;-57
2022/02/16 08:48:49;;;;;;;5.97;5.38;;;7.10;99.90;;;;;;5131314;27;20034;-58
2022/02/16 08:51:15;;;;;;;5.97;5.28;;;7.10;99.90;;;;;;5131779;27;20027;-57
2022/02/16 08:53:40;;;;;;;7.03;5.70;;;7.20;99.90;;;;;;5130979;27;20076;-55
2022/02/16 08:56:06;;;;;;;5.78;4.93;;;7.20;99.90;;;;;;5130902;27;20051;-58
2022/02/16 08:58:32;;;;;;;7.68;6.25;;;7.20;99.90;;;;;;5130652;27;20049;-56
2022/02/16 09:00:58;;;;;;;7.82;6.25;;;7.20;99.90;;;;;;5128316;27;20118;-57
2022/02/16 09:03:24;;;;;;;5.60;4.63;;;7.20;99.90;;;;;;5123316;27;20130;-59
2022/02/16 09:05:50;;;;;;;10.25;7.40;;;7.20;99.90;;;;;;5126052;27;20019;-56
2022/02/16 09:08:17;;;;;;;11.13;7.47;;;7.30;99.90;;;;;;5123124;27;20420;-56
2022/02/16 09:10:43;;;;;;;7.53;5.72;;;7.30;99.90;;;;;;5122508;27;20027;-56
2022/02/16 09:13:09;;;;;;;6.28;5.32;;;7.30;99.90;;;;;;5130561;27;20027;-54
2022/02/16 09:15:35;;;;;;;8.23;5.15;;;7.30;99.90;;;;;;5131123;27;20023;-58
2022/02/16 09:18:00;;;;;;;5.47;4.55;;;7.30;99.90;;;;;;5131160;27;20361;-59
2022/02/16 09:20:26;;;;;;;4.45;4.05;;;7.30;99.90;;;;;;5130956;27;20039;-57
2022/02/16 09:22:52;;;;;;;4.25;3.85;;;7.30;99.90;;;;;;5131033;27;20031;-55
2022/02/16 09:25:18;;;;;;;3.85;3.45;;;7.30;99.90;;;;;;5131257;27;20027;-57
2022/02/16 09:27:43;;;;;;;3.67;3.17;;;7.30;99.90;;;;;;5130711;27;20075;-56
2022/02/16 09:30:10;;;;;;;4.05;3.03;;;7.40;99.90;;;;;;5130693;27;20507;-56
2022/02/16 09:32:36;;;;;;;3.35;2.78;;;7.40;99.90;;;;;;5128738;22;20044;-51
2022/02/16 09:35:03;;;;;;;3.78;3.13;;;7.40;99.90;;;;;;5087904;28;20028;-50
2022/02/16 09:37:28;;;;;;;2.55;2.35;;;7.40;99.90;;;;;;5090042;28;20031;-51
2022/02/16 09:39:54;;;;;;;3.65;2.17;;;7.50;99.90;;;;;;5071598;28;20024;-51
2022/02/16 09:42:20;;;;;;;2.45;2.25;;;7.50;99.90;;;;;;5089058;28;20028;-50
2022/02/16 09:45:06;;;;;;;2.63;2.42;;;7.50;99.90;;;;;;5090079;28;20365;-51
2022/02/16 09:47:33;;;;;;;4.55;3.88;;;7.50;99.90;;;;;;5068123;28;20032;-49
2022/02/16 09:49:59;;;;;;;9.93;6.88;;;7.50;99.90;;;;;;5088053;28;20028;-51
2022/02/16 09:52:25;;;;;;;5.72;3.97;;;7.50;99.90;;;;;;5071282;28;20024;-50
2022/02/16 09:54:51;;;;;;;2.65;2.40;;;7.50;99.90;;;;;;5070343;28;20024;-51
2022/02/16 09:57:18;;;;;;;6.72;5.57;;;7.50;99.90;;;;;;5069244;28;20393;-50
2022/02/16 09:59:44;;;;;;;2.95;2.63;;;7.50;99.90;;;;;;5087210;28;20067;-51
2022/02/16 10:02:12;;;;;;;8.10;5.65;;;7.50;99.90;;;;;;5081926;28;20048;-51
2022/02/16 10:04:42;;;;;;;4.32;3.67;;;7.60;99.90;;;;;;5059222;28;20052;-52
2022/02/16 10:07:26;;;;;;;2.58;2.28;;;7.60;99.90;;;;;;5068853;28;20496;-50
2022/02/16 10:09:53;;;;;;;2.00;1.77;;;7.60;99.90;;;;;;5087327;28;20036;-55
2022/02/16 10:12:31;;;;;;;2.80;2.17;;;7.60;99.90;;;;;;5085170;28;20028;-52
2022/02/16 10:14:56;;;;;;;3.75;3.15;;;7.70;99.90;;;;;;5063508;28;20059;-51
2022/02/16 10:17:27;;;;;;;3.13;2.50;;;7.70;99.90;;;;;;5057051;28;20192;-49
2022/02/16 10:19:56;;;;;;;3.17;2.78;;;7.70;99.90;;;;;;5074446;28;20104;-52
2022/02/16 10:22:25;;;;;;;9.35;6.43;;;7.70;99.90;;;;;;5081199;28;20326;-52
2022/02/16 10:24:51;;;;;;;9.23;5.05;;;7.80;99.90;;;;;;5090863;28;20042;-51
2022/02/16 10:27:18;;;;;;;9.10;6.32;;;7.80;99.90;;;;;;5087029;28;20020;-52
2022/02/16 10:29:45;;;;;;;6.00;4.25;;;7.80;99.90;;;;;;5069337;28;20024;-52
2022/02/16 10:32:25;;;;;;;8.88;6.07;;;7.90;99.90;;;;;;5096118;28;20666;-51
2022/02/16 10:34:55;;;;;;;9.85;6.15;;;8.00;99.90;;;;;;5093614;28;20054;-51
2022/02/16 10:37:28;;;;;;;9.20;5.95;;;8.00;99.90;;;;;;5092550;28;20032;-53
2022/02/16 10:40:10;;;;;;;8.93;5.32;;;8.00;99.90;;;;;;5092354;28;20103;-53
2022/02/16 10:42:39;;;;;;;6.40;3.95;;;8.10;99.90;;;;;;5102095;28;20027;-52
2022/02/16 10:45:11;;;;;;;3.88;2.90;;;8.10;99.90;;;;;;5102958;28;20048;-53
2022/02/16 10:48:04;;;;;;;4.53;3.00;;;8.20;99.90;;;;;;5092460;28;20034;-53
2022/02/16 10:50:31;;;;;;;31.65;10.95;;;8.30;99.90;;;;;;5092656;28;20516;-50
2022/02/16 10:53:02;;;;;;;7.43;5.50;;;8.30;99.90;;;;;;5091886;28;20047;-51
2022/02/16 10:55:46;;;;;;;6.43;4.53;;;8.30;99.90;;;;;;5075336;28;20043;-52
2022/02/16 10:58:23;;;;;;;4.68;3.30;;;8.30;99.90;;;;;;5092875;28;20038;-52
2022/02/16 11:00:52;;;;;;;3.08;2.42;;;8.30;99.90;;;;;;5075323;28;20016;-51
2022/02/16 11:03:39;;;;;;;4.90;4.10;;;8.40;99.90;;;;;;5073575;28;20543;-50
2022/02/16 11:06:09;;;;;;;;;;;8.40;99.90;;;;;;5109219;28;20427;-53
2022/02/16 11:08:38;;;;;;;2.90;2.60;;;8.40;99.90;;;;;;5111446;28;19903;-51
2022/02/16 11:11:05;;;;;;;2.50;1.88;;;8.40;99.90;;;;;;5112158;28;20186;-50
2022/02/16 11:13:32;;;;;;;1.73;1.63;;;8.50;99.90;;;;;;5099244;28;20033;-54
2022/02/16 11:15:59;;;;;;;2.00;1.80;;;8.50;99.90;;;;;;5111147;28;20027;-51
2022/02/16 11:18:26;;;;;;;2.58;2.28;;;8.60;99.90;;;;;;5110634;28;20015;-52
2022/02/16 11:21:16;;;;;;;2.50;2.30;;;8.60;99.90;;;;;;5093817;28;20028;-51
2022/02/16 11:23:43;;;;;;;2.30;2.08;;;8.70;99.90;;;;;;5109968;28;20506;-51
2022/02/16 11:26:35;;;;;;;2.17;1.70;;;8.70;99.90;;;;;;5111339;28;20163;-52
2022/02/16 11:29:05;;;;;;;2.13;1.98;;;8.80;99.90;;;;;;5111996;28;20035;-51
2022/02/16 11:31:38;;;;;;;2.47;2.05;;;8.80;99.90;;;;;;5106322;28;20020;-49
2022/02/16 11:34:13;;;;;;;2.30;2.10;;;8.80;99.90;;;;;;5103020;28;20115;-52
2022/02/16 11:36:52;;;;;;;2.50;2.25;;;8.90;99.90;;;;;;5110469;28;20028;-50
2022/02/16 11:39:45;;;;;;;2.53;2.33;;;8.90;99.90;;;;;;5111434;28;20023;-51
2022/02/16 11:42:17;;;;;;;2.55;2.35;;;8.90;99.90;;;;;;5109484;28;20088;-50
2022/02/16 11:44:52;;;;;;;2.95;2.42;;;8.90;99.90;;;;;;5086269;28;20017;-51
2022/02/16 11:47:36;;;;;;;2.60;2.40;;;9.00;99.90;;;;;;5091002;28;20024;-50
2022/02/16 11:50:27;;;;;;;2.85;2.55;;;9.00;99.90;;;;;;5101040;28;20019;-50
2022/02/16 11:52:58;;;;;;;2.67;2.47;;;9.00;99.90;;;;;;5110539;28;20062;-52
2022/02/16 11:55:31;;;;;;;2.63;2.42;;;9.10;99.90;;;;;;5111023;28;20069;-49
2022/02/16 11:58:08;;;;;;;2.60;2.40;;;9.10;99.90;;;;;;5111525;28;20023;-51
2022/02/16 12:00:42;;;;;;;3.30;3.00;;;9.20;99.90;;;;;;5103966;28;20008;-51
2022/02/16 12:03:12;;;;;;;3.30;3.00;;;9.20;99.90;;;;;;5090013;28;20503;-56
2022/02/16 12:05:58;;;;;;;2.90;2.55;;;9.20;99.90;;;;;;5101853;28;20068;-50
2022/02/16 12:08:42;;;;;;;2.90;2.30;;;9.30;99.90;;;;;;5110165;28;20023;-50
2022/02/16 12:11:19;;;;;;;2.55;2.22;;;9.30;99.90;;;;;;5108005;28;20173;-52
2022/02/16 12:13:49;;;;;;;2.33;2.13;;;9.40;99.90;;;;;;5109266;28;20114;-52
2022/02/16 12:16:23;;;;;;;1.50;1.40;;;9.40;99.90;;;;;;5090814;28;20181;-50
2022/02/16 12:18:50;;;;;;;1.45;1.35;;;9.50;99.90;;;;;;5107027;28;20035;-50
2022/02/16 12:21:27;;;;;;;2.10;1.90;;;9.50;99.90;;;;;;5099693;28;20515;-50
2022/02/16 12:23:59;;;;;;;1.60;1.50;;;9.50;99.90;;;;;;5104711;28;20096;-50
2022/02/16 12:26:27;;;;;;;1.55;1.35;;;9.60;99.90;;;;;;5092148;28;20429;-52
2022/02/16 12:29:00;;;;;;;1.60;1.17;;;9.60;99.90;;;;;;5110333;28;20398;-52
2022/02/16 12:31:33;;;;;;;1.27;1.17;;;9.70;99.90;;;;;;5110299;28;20115;-51
2022/02/16 12:34:12;;;;;;;3.08;1.48;;;9.70;99.90;;;;;;5109854;28;20042;-50
2022/02/16 12:36:46;;;;;;;1.10;1.00;;;9.70;99.90;;;;;;5110315;28;20115;-53
2022/02/16 12:39:13;;;;;;;1.70;1.35;;;9.80;99.90;;;;;;5111037;28;20038;-51
2022/02/16 12:41:42;;;;;;;4.63;3.42;;;9.90;99.90;;;;;;5110417;28;20450;-49
2022/02/16 12:44:11;;;;;;;9.35;5.82;;;9.90;99.90;;;;;;5109782;28;20046;-51
2022/02/16 12:46:47;;;;;;;2.17;1.70;;;9.90;99.90;;;;;;5110157;28;20020;-53
2022/02/16 12:49:15;;;;;;;5.73;4.73;;;10.00;99.90;;;;;;5110578;28;20255;-50
2022/02/16 12:51:45;;;;;;;3.25;1.70;;;10.00;99.90;;;;;;5109031;28;20310;-49
2022/02/16 12:54:18;;;;;;;9.98;6.63;;;10.00;99.90;;;;;;5108370;28;20047;-52